Time;durP1;ratioP1;P1;durP2;ratioP2;P2;SDS_P1;SDS_P2;PMS_P1;PMS_P2;Temp;Humidity;BMP_temperature;BMP_pressure;BME280_temperature;BME280_humidity;BME280_pressure;Samples;Min_cycle;Max_cycle;Signal;HPM_P1;HPM_P2
2023/03/07 00:02:10;;;;;;;9.45;6.13;;;22.50;37.30;;;;;;6274623;27;80529;-64
2023/03/07 00:05:13;;;;;;;11.52;6.88;;;22.50;37.60;;;;;;6275634;27;80403;-62
2023/03/07 00:08:14;;;;;;;10.73;6.43;;;22.50;37.40;;;;;;6274511;27;81660;-63
2023/03/07 00:11:14;;;;;;;10.25;6.75;;;22.50;37.50;;;;;;6274707;27;81046;-61
2023/03/07 00:14:15;;;;;;;11.55;6.47;;;22.50;37.50;;;;;;6276768;27;80717;-61
2023/03/07 00:17:17;;;;;;;9.13;6.07;;;22.50;37.60;;;;;;6267989;27;80754;-61
2023/03/07 00:20:17;;;;;;;10.52;6.25;;;22.50;37.30;;;;;;6273801;27;80427;-63
2023/03/07 00:23:18;;;;;;;9.23;6.05;;;22.50;37.40;;;;;;6274095;27;80427;-62
2023/03/07 00:26:18;;;;;;;10.10;6.60;;;22.50;37.50;;;;;;6266184;27;81322;-62
2023/03/07 00:29:19;;;;;;;10.13;6.57;;;22.50;37.20;;;;;;6276791;27;80451;-63
2023/03/07 00:32:20;;;;;;;10.93;6.15;;;22.50;37.40;;;;;;6275614;27;82067;-63
2023/03/07 00:35:20;;;;;;;11.50;6.43;;;22.50;37.40;;;;;;6253584;27;80504;-63
2023/03/07 00:38:21;;;;;;;9.30;6.30;;;22.50;37.30;;;;;;6259369;27;80278;-64
2023/03/07 00:41:21;;;;;;;11.13;6.57;;;22.50;37.40;;;;;;6279138;27;81130;-64
2023/03/07 00:44:24;;;;;;;10.25;6.50;;;22.50;37.50;;;;;;6257341;27;83388;-64
2023/03/07 00:47:24;;;;;;;9.82;6.07;;;22.50;37.40;;;;;;6276365;27;81850;-62
2023/03/07 00:50:25;;;;;;;8.52;5.90;;;22.50;37.30;;;;;;6257595;27;83315;-63
2023/03/07 00:53:25;;;;;;;10.07;5.68;;;22.50;37.50;;;;;;6275538;27;80820;-63
2023/03/07 00:56:26;;;;;;;9.93;6.10;;;22.50;37.50;;;;;;6256976;27;81748;-64
2023/03/07 00:59:27;;;;;;;9.60;5.90;;;22.50;37.60;;;;;;6239415;27;82396;-64
2023/03/07 01:02:28;;;;;;;8.50;5.50;;;22.40;37.60;;;;;;6275596;27;83827;-63
2023/03/07 01:05:28;;;;;;;9.30;5.90;;;22.50;37.50;;;;;;6256706;27;83941;-61
2023/03/07 01:08:29;;;;;;;10.02;5.72;;;22.50;37.60;;;;;;6263604;27;80356;-61
2023/03/07 01:11:29;;;;;;;7.47;5.35;;;22.50;37.30;;;;;;6254556;27;82426;-61
2023/03/07 01:14:30;;;;;;;8.25;5.53;;;22.50;37.40;;;;;;6242994;27;82399;-62
2023/03/07 01:17:30;;;;;;;7.97;5.82;;;22.40;37.40;;;;;;6256725;27;80636;-62
2023/03/07 01:20:31;;;;;;;11.20;6.65;;;22.40;37.30;;;;;;6250961;27;83302;-61
2023/03/07 01:23:32;;;;;;;9.60;5.55;;;22.40;37.40;;;;;;6236290;27;81640;-61
2023/03/07 01:26:33;;;;;;;8.75;5.55;;;22.40;37.30;;;;;;6270480;27;80189;-62
2023/03/07 01:29:33;;;;;;;9.02;5.65;;;22.50;37.20;;;;;;6231817;27;83073;-61
2023/03/07 01:32:34;;;;;;;7.95;5.43;;;22.50;37.30;;;;;;6231974;27;82783;-60
2023/03/07 01:35:34;;;;;;;10.20;6.15;;;22.50;37.10;;;;;;6273699;27;80697;-60
2023/03/07 01:38:35;;;;;;;8.63;5.45;;;22.50;37.10;;;;;;6274815;27;84026;-62
2023/03/07 01:41:38;;;;;;;7.57;5.40;;;22.40;37.00;;;;;;6254770;27;82795;-62
2023/03/07 01:44:40;;;;;;;7.38;5.10;;;22.40;37.00;;;;;;6237151;27;82130;-64
2023/03/07 01:47:42;;;;;;;9.27;5.78;;;22.50;37.00;;;;;;6274752;27;80383;-64
2023/03/07 01:50:43;;;;;;;11.45;6.65;;;22.50;37.00;;;;;;6256361;27;83537;-64
2023/03/07 01:53:43;;;;;;;9.95;6.03;;;22.50;37.00;;;;;;6253948;27;81892;-63
2023/03/07 01:56:45;;;;;;;9.60;6.57;;;22.40;36.90;;;;;;6253505;27;80638;-62
2023/03/07 01:59:45;;;;;;;10.32;6.22;;;22.50;36.90;;;;;;6268044;27;80911;-47
2023/03/07 02:02:46;;;;;;;9.35;6.60;;;22.40;36.80;;;;;;6235439;27;81926;-48
2023/03/07 02:05:51;;;;;;;9.27;6.45;;;22.50;37.00;;;;;;6253182;27;83480;-49
2023/03/07 02:08:52;;;;;;;10.00;6.50;;;22.40;37.00;;;;;;6252033;27;83036;-48
2023/03/07 02:11:53;;;;;;;9.90;5.90;;;22.40;37.00;;;;;;6255504;27;83216;-50
2023/03/07 02:14:53;;;;;;;9.70;5.90;;;22.50;37.10;;;;;;6260739;27;83278;-49
2023/03/07 02:17:54;;;;;;;9.65;6.07;;;22.50;37.00;;;;;;6257569;27;81459;-53
2023/03/07 02:20:55;;;;;;;7.75;5.60;;;22.50;37.00;;;;;;6265024;27;80556;-53
2023/03/07 02:23:55;;;;;;;8.88;6.15;;;22.40;37.00;;;;;;6252957;27;82722;-55
2023/03/07 02:26:56;;;;;;;8.73;5.93;;;22.40;36.90;;;;;;6276185;27;80666;-54
2023/03/07 02:29:57;;;;;;;8.35;5.43;;;22.50;36.80;;;;;;6274220;27;81822;-54
2023/03/07 02:32:57;;;;;;;9.40;5.43;;;22.40;36.90;;;;;;6269862;27;80890;-52
2023/03/07 02:35:58;;;;;;;9.85;5.20;;;22.40;36.90;;;;;;6254277;27;83206;-56
2023/03/07 02:38:59;;;;;;;8.27;5.38;;;22.40;36.90;;;;;;6256785;27;82956;-56
2023/03/07 02:42:00;;;;;;;8.98;5.57;;;22.40;36.90;;;;;;6260885;27;81967;-56
2023/03/07 02:45:10;;;;;;;8.02;5.38;;;22.40;36.90;;;;;;6255588;27;84165;-55
2023/03/07 02:48:12;;;;;;;6.18;4.43;;;22.40;36.90;;;;;;6259415;27;83480;-57
2023/03/07 02:51:13;;;;;;;7.93;5.22;;;22.40;36.80;;;;;;6274982;27;80325;-57
2023/03/07 02:54:16;;;;;;;7.95;4.82;;;22.40;36.90;;;;;;6239516;27;82677;-56
2023/03/07 02:57:17;;;;;;;8.05;5.40;;;22.40;36.90;;;;;;6275664;27;80538;-56
2023/03/07 03:00:17;;;;;;;7.78;5.07;;;22.40;36.90;;;;;;6258676;27;83180;-56
2023/03/07 03:03:18;;;;;;;7.30;4.50;;;22.40;36.80;;;;;;6257961;27;82597;-53
2023/03/07 03:06:20;;;;;;;6.85;5.13;;;22.40;36.90;;;;;;6244820;27;81750;-55
2023/03/07 03:09:21;;;;;;;8.30;5.03;;;22.40;36.90;;;;;;6278337;27;81170;-56
2023/03/07 03:12:21;;;;;;;7.05;5.28;;;22.40;36.90;;;;;;6258206;27;83178;-57
2023/03/07 03:15:22;;;;;;;8.25;5.18;;;22.40;36.90;;;;;;6254699;27;83526;-55
2023/03/07 03:18:22;;;;;;;8.23;5.22;;;22.40;36.90;;;;;;6277422;27;80450;-54
2023/03/07 03:21:23;;;;;;;9.70;5.70;;;22.40;36.90;;;;;;6234816;27;82256;-54
2023/03/07 03:24:24;;;;;;;9.95;5.82;;;22.40;37.00;;;;;;6246683;27;83501;-51
2023/03/07 03:27:25;;;;;;;9.52;5.43;;;22.40;37.30;;;;;;6275705;27;83845;-53
2023/03/07 03:30:27;;;;;;;8.15;5.68;;;22.50;37.40;;;;;;6277332;27;81899;-56
2023/03/07 03:33:28;;;;;;;12.27;6.65;;;22.50;37.30;;;;;;6241622;27;81912;-56
2023/03/07 03:36:29;;;;;;;14.07;6.82;;;22.50;37.30;;;;;;6246931;27;81382;-52
2023/03/07 03:39:34;;;;;;;9.48;6.30;;;22.50;37.40;;;;;;6262664;27;82254;-56
2023/03/07 03:42:35;;;;;;;9.15;6.07;;;22.50;37.20;;;;;;6246990;27;83563;-57
2023/03/07 03:45:36;;;;;;;8.80;6.20;;;22.50;37.20;;;;;;6249425;27;82769;-54
2023/03/07 03:48:36;;;;;;;8.98;5.72;;;22.50;37.20;;;;;;6242484;27;83141;-63
2023/03/07 03:51:37;;;;;;;11.48;6.22;;;22.40;37.40;;;;;;6251151;27;81471;-64
2023/03/07 03:54:38;;;;;;;9.60;5.95;;;22.50;37.50;;;;;;6241353;27;82064;-64
2023/03/07 03:57:38;;;;;;;8.40;5.97;;;22.50;37.40;;;;;;6270776;27;87648;-64
2023/03/07 04:00:40;;;;;;;10.40;5.95;;;22.40;37.30;;;;;;6253995;27;83476;-64
2023/03/07 04:03:40;;;;;;;10.73;6.20;;;22.50;37.40;;;;;;6269194;27;80357;-64
2023/03/07 04:06:41;;;;;;;9.45;5.35;;;22.40;37.30;;;;;;6254764;27;83068;-64
2023/03/07 04:09:42;;;;;;;9.25;5.53;;;22.40;37.40;;;;;;6252060;27;82194;-63
2023/03/07 04:12:43;;;;;;;10.32;5.60;;;22.50;37.30;;;;;;6275699;27;83310;-63
2023/03/07 04:15:43;;;;;;;9.30;6.03;;;22.50;37.40;;;;;;6258049;27;83075;-64
2023/03/07 04:18:44;;;;;;;9.30;6.03;;;22.50;37.40;;;;;;6250118;27;82288;-63
2023/03/07 04:21:45;;;;;;;6.82;5.30;;;22.50;37.20;;;;;;6268167;27;80342;-63
2023/03/07 04:24:49;;;;;;;10.45;5.70;;;22.40;37.20;;;;;;6257466;27;87804;-59
2023/03/07 04:27:49;;;;;;;8.48;5.07;;;22.40;37.30;;;;;;6275936;27;80728;-66
2023/03/07 04:30:52;;;;;;;6.70;4.63;;;22.40;37.50;;;;;;6266004;27;80768;-69
2023/03/07 04:33:52;;;;;;;8.25;5.30;;;22.40;37.40;;;;;;6249298;27;81697;-66
2023/03/07 04:36:53;;;;;;;7.32;5.20;;;22.40;38.00;;;;;;6248948;27;80740;-66
2023/03/07 04:39:54;;;;;;;6.07;4.75;;;22.40;37.70;;;;;;6255968;27;83328;-63
2023/03/07 04:42:54;;;;;;;8.48;4.97;;;22.50;37.50;;;;;;6244774;27;82930;-65
2023/03/07 04:45:55;;;;;;;8.02;5.18;;;22.50;37.40;;;;;;6250714;27;81220;-63
2023/03/07 04:48:56;;;;;;;10.23;6.30;;;22.50;37.30;;;;;;6248680;27;81781;-64
2023/03/07 04:51:56;;;;;;;11.02;5.95;;;22.40;37.10;;;;;;6253608;27;82980;-64
2023/03/07 04:54:57;;;;;;;9.35;6.20;;;22.50;37.20;;;;;;6247845;27;82146;-64
2023/03/07 04:57:58;;;;;;;8.40;5.10;;;22.50;37.50;;;;;;6234280;27;83519;-64
2023/03/07 05:00:59;;;;;;;7.18;4.70;;;22.50;38.20;;;;;;6240055;27;81478;-64
2023/03/07 05:04:00;;;;;;;7.70;5.10;;;22.50;38.30;;;;;;6265250;27;86206;-65
2023/03/07 05:07:01;;;;;;;7.60;5.13;;;22.50;38.10;;;;;;6253858;27;83006;-64
2023/03/07 05:10:02;;;;;;;13.85;7.63;;;22.50;37.80;;;;;;6248758;27;83040;-59
2023/03/07 05:13:03;;;;;;;23.70;9.35;;;22.50;37.50;;;;;;6242529;27;83355;-60
2023/03/07 05:16:03;;;;;;;15.65;7.85;;;22.40;37.70;;;;;;6247753;27;84101;-59
2023/03/07 05:19:05;;;;;;;13.20;7.15;;;22.50;37.80;;;;;;6242909;27;82344;-64
2023/03/07 05:22:06;;;;;;;18.42;7.38;;;22.50;37.90;;;;;;6253748;27;82130;-61
2023/03/07 05:25:07;;;;;;;20.17;6.95;;;22.40;37.90;;;;;;6250128;27;82849;-67
2023/03/07 05:28:08;;;;;;;14.82;7.03;;;22.40;38.00;;;;;;6254227;27;83332;-72
2023/03/07 05:31:09;;;;;;;14.00;6.03;;;22.40;37.90;;;;;;6273546;27;80309;-72
2023/03/07 05:34:10;;;;;;;15.18;6.65;;;22.30;38.10;;;;;;6245224;27;83309;-62
2023/03/07 05:37:11;;;;;;;10.02;5.60;;;22.30;38.00;;;;;;6245179;27;82858;-67
2023/03/07 05:40:12;;;;;;;12.57;6.05;;;22.30;38.00;;;;;;6263598;27;82812;-73
2023/03/07 05:43:17;;;;;;;14.77;7.20;;;22.30;38.10;;;;;;6236835;27;83707;-72
2023/03/07 05:46:19;;;;;;;11.77;6.63;;;22.30;37.40;;;;;;6255184;27;81753;-67
2023/03/07 05:49:20;;;;;;;12.02;5.35;;;22.20;37.10;;;;;;6235097;27;83582;-63
2023/03/07 05:52:20;;;;;;;12.65;5.95;;;22.20;37.30;;;;;;6237090;27;82479;-66
2023/03/07 05:55:21;;;;;;;12.57;5.50;;;22.20;37.90;;;;;;6239110;27;83353;-68
2023/03/07 05:58:22;;;;;;;9.25;4.97;;;22.20;38.40;;;;;;6267092;27;80958;-68
2023/03/07 06:01:23;;;;;;;9.60;4.82;;;22.20;38.50;;;;;;6256521;27;82141;-66
2023/03/07 06:04:23;;;;;;;10.32;5.60;;;22.20;38.10;;;;;;6250759;27;81496;-66
2023/03/07 06:07:24;;;;;;;10.68;5.55;;;22.20;37.70;;;;;;6274846;27;82365;-66
2023/03/07 06:10:24;;;;;;;11.55;6.00;;;22.20;37.30;;;;;;6243022;27;81277;-67
2023/03/07 06:13:25;;;;;;;9.52;5.13;;;22.30;37.20;;;;;;6278648;27;80572;-66
2023/03/07 06:16:26;;;;;;;9.63;5.60;;;22.30;36.90;;;;;;6276304;27;80335;-66
2023/03/07 06:19:26;;;;;;;11.02;5.78;;;22.20;36.70;;;;;;6239116;28;82674;-68
2023/03/07 06:22:27;;;;;;;9.45;4.93;;;22.30;36.90;;;;;;6247624;27;83798;-68
2023/03/07 06:25:28;;;;;;;7.55;4.88;;;22.20;36.80;;;;;;6257729;27;82548;-66
2023/03/07 06:28:29;;;;;;;8.40;4.80;;;22.30;36.70;;;;;;6257084;27;81551;-68
2023/03/07 06:31:30;;;;;;;9.50;5.05;;;22.20;36.50;;;;;;6257104;27;82320;-67
2023/03/07 06:34:31;;;;;;;8.15;4.47;;;22.20;36.50;;;;;;6255876;27;83496;-67
2023/03/07 06:37:32;;;;;;;10.48;4.43;;;22.30;36.50;;;;;;6256668;27;83710;-67
2023/03/07 06:40:34;;;;;;;11.45;5.07;;;22.30;36.50;;;;;;6256846;27;81441;-66
2023/03/07 06:43:34;;;;;;;7.90;4.47;;;22.30;36.40;;;;;;6252864;27;83523;-65
2023/03/07 06:46:35;;;;;;;7.13;5.05;;;22.30;36.30;;;;;;6266898;27;82865;-66
2023/03/07 06:49:41;;;;;;;8.52;4.90;;;22.30;36.40;;;;;;6269689;27;88732;-67
2023/03/07 06:52:42;;;;;;;8.90;5.13;;;22.30;36.30;;;;;;6245553;27;82677;-67
2023/03/07 06:55:43;;;;;;;7.82;4.55;;;22.30;36.40;;;;;;6275821;27;80921;-66
2023/03/07 06:58:46;;;;;;;8.35;4.50;;;22.30;36.30;;;;;;6248483;27;83692;-64
2023/03/07 07:01:48;;;;;;;9.00;4.72;;;22.30;36.30;;;;;;6255773;27;83410;-64
2023/03/07 07:04:49;;;;;;;11.57;4.38;;;22.30;36.30;;;;;;6249597;27;83828;-68
2023/03/07 07:07:50;;;;;;;9.27;4.60;;;22.30;36.30;;;;;;6247334;27;80545;-66
2023/03/07 07:10:51;;;;;;;9.60;4.57;;;22.30;36.20;;;;;;6253343;27;81378;-67
2023/03/07 07:13:52;;;;;;;8.15;4.97;;;22.30;36.30;;;;;;6254166;27;83222;-67
2023/03/07 07:16:54;;;;;;;7.80;4.22;;;22.30;36.30;;;;;;6259535;27;83187;-66
2023/03/07 07:19:55;;;;;;;8.88;4.45;;;22.30;36.30;;;;;;6258017;27;82298;-65
2023/03/07 07:22:55;;;;;;;8.25;4.80;;;22.40;36.30;;;;;;6268282;27;80574;-67
2023/03/07 07:25:56;;;;;;;7.95;4.55;;;22.30;36.10;;;;;;6254609;27;83601;-67
2023/03/07 07:28:56;;;;;;;7.35;4.75;;;22.40;36.20;;;;;;6264208;27;80563;-53
2023/03/07 07:31:57;;;;;;;7.15;4.00;;;22.40;36.00;;;;;;6277672;27;80761;-50
2023/03/07 07:34:57;;;;;;;7.00;4.50;;;22.40;36.00;;;;;;6278113;27;81372;-51
2023/03/07 07:37:59;;;;;;;7.03;4.47;;;22.50;36.10;;;;;;6277143;27;80843;-51
2023/03/07 07:41:01;;;;;;;7.57;4.03;;;22.50;36.00;;;;;;6271567;27;83380;-51
2023/03/07 07:44:02;;;;;;;8.63;4.47;;;22.50;36.00;;;;;;6258374;27;83108;-51
2023/03/07 07:47:15;;;;;;;6.70;4.25;;;22.60;36.00;;;;;;6255367;27;83093;-49
2023/03/07 07:50:15;;;;;;;6.65;3.92;;;22.60;35.80;;;;;;6245344;27;82816;-51
2023/03/07 07:53:16;;;;;;;6.32;4.43;;;22.60;36.00;;;;;;6244999;27;81683;-52
2023/03/07 07:56:17;;;;;;;7.07;4.32;;;22.60;35.80;;;;;;6244264;27;83364;-54
2023/03/07 07:59:18;;;;;;;6.78;4.43;;;22.70;36.00;;;;;;6251187;27;82063;-53
2023/03/07 08:02:19;;;;;;;5.40;3.88;;;22.70;35.80;;;;;;6235343;27;83434;-51
2023/03/07 08:05:20;;;;;;;7.68;4.85;;;22.70;36.00;;;;;;6277922;27;80307;-51
2023/03/07 08:08:20;;;;;;;6.97;4.30;;;22.80;35.80;;;;;;6266677;27;80472;-67
2023/03/07 08:11:21;;;;;;;5.22;3.83;;;22.80;35.70;;;;;;6261138;27;80094;-68
2023/03/07 08:14:21;;;;;;;5.45;3.97;;;22.80;36.00;;;;;;6275458;27;80386;-66
2023/03/07 08:17:22;;;;;;;6.15;3.47;;;22.80;35.70;;;;;;6263224;27;80999;-66
2023/03/07 08:20:24;;;;;;;6.50;4.20;;;22.90;35.80;;;;;;6263362;27;80369;-67
2023/03/07 08:23:24;;;;;;;5.13;3.63;;;22.90;35.90;;;;;;6276105;27;80702;-67
2023/03/07 08:26:25;;;;;;;5.07;3.72;;;22.90;35.80;;;;;;6278290;27;80954;-67
2023/03/07 08:29:26;;;;;;;6.40;3.60;;;22.90;36.10;;;;;;6271126;27;80550;-66
2023/03/07 08:32:26;;;;;;;7.03;3.67;;;22.90;36.10;;;;;;6267208;27;80382;-67
2023/03/07 08:35:27;;;;;;;6.25;3.47;;;22.90;36.20;;;;;;6262970;27;80844;-67
2023/03/07 08:38:27;;;;;;;4.50;3.72;;;23.00;36.30;;;;;;6277704;27;80352;-67
2023/03/07 08:41:28;;;;;;;7.90;3.70;;;23.00;36.00;;;;;;6289150;27;81041;-66
2023/03/07 08:44:28;;;;;;;4.93;3.53;;;23.00;36.00;;;;;;6255040;27;81365;-68
2023/03/07 08:47:29;;;;;;;8.20;3.58;;;23.00;35.80;;;;;;6277331;27;80805;-67
2023/03/07 08:50:29;;;;;;;5.00;3.80;;;23.00;36.20;;;;;;6263371;27;82545;-68
2023/03/07 08:53:30;;;;;;;4.53;3.22;;;23.10;35.90;;;;;;6275023;27;80795;-68
2023/03/07 08:56:30;;;;;;;5.22;3.47;;;23.10;35.70;;;;;;6275630;27;80528;-67
2023/03/07 08:59:31;;;;;;;5.70;3.55;;;23.10;35.80;;;;;;6271384;27;80984;-66
2023/03/07 09:02:31;;;;;;;4.18;3.35;;;23.10;35.60;;;;;;6275574;27;80417;-67
2023/03/07 09:05:32;;;;;;;4.78;3.67;;;23.10;35.80;;;;;;6276237;27;80355;-66
2023/03/07 09:08:32;;;;;;;4.95;3.30;;;23.10;35.40;;;;;;6276109;27;81114;-65
2023/03/07 09:11:33;;;;;;;5.88;3.58;;;23.10;35.70;;;;;;6275597;27;81255;-65
2023/03/07 09:14:33;;;;;;;5.00;3.60;;;23.10;35.40;;;;;;6276111;27;80497;-63
2023/03/07 09:17:34;;;;;;;5.13;3.30;;;23.10;35.40;;;;;;6244319;27;82061;-65
2023/03/07 09:20:34;;;;;;;8.60;3.70;;;23.10;35.40;;;;;;6275907;27;80712;-65
2023/03/07 09:23:35;;;;;;;5.70;3.60;;;23.10;35.40;;;;;;6279799;27;80759;-66
2023/03/07 09:26:35;;;;;;;4.72;3.45;;;23.10;35.40;;;;;;6280107;27;80492;-65
2023/03/07 09:29:36;;;;;;;5.60;3.70;;;23.10;35.40;;;;;;6265835;27;82110;-66
2023/03/07 09:32:36;;;;;;;4.75;3.28;;;23.10;35.40;;;;;;6279752;27;80642;-64
2023/03/07 09:35:37;;;;;;;4.75;3.40;;;23.10;35.40;;;;;;6266674;27;81324;-66
2023/03/07 09:38:38;;;;;;;4.65;3.33;;;23.10;35.40;;;;;;6276695;27;80108;-65
2023/03/07 09:41:38;;;;;;;6.70;3.58;;;23.10;35.30;;;;;;6281876;27;80859;-66
2023/03/07 09:44:39;;;;;;;4.93;3.92;;;23.10;35.60;;;;;;6278860;27;84274;-66
2023/03/07 09:48:02;;;;;;;4.30;3.17;;;23.10;35.40;;;;;;6277908;27;81078;-67
2023/03/07 09:51:03;;;;;;;4.18;3.30;;;23.10;35.40;;;;;;6264685;27;80292;-67
2023/03/07 09:54:03;;;;;;;3.72;2.95;;;23.10;35.40;;;;;;6279563;27;81725;-66
2023/03/07 09:57:04;;;;;;;5.80;3.45;;;23.10;35.50;;;;;;6277436;27;82169;-65
2023/03/07 10:00:05;;;;;;;4.03;3.08;;;23.10;35.80;;;;;;6276674;27;80130;-65
2023/03/07 10:03:12;;;;;;;3.67;3.05;;;23.10;35.40;;;;;;6259747;27;82381;-66
2023/03/07 10:06:12;;;;;;;3.63;2.83;;;23.20;35.70;;;;;;6274864;27;81167;-66
2023/03/07 10:09:13;;;;;;;3.40;2.95;;;23.20;35.40;;;;;;6278458;27;80901;-65
2023/03/07 10:12:16;;;;;;;3.42;2.53;;;23.20;35.30;;;;;;6267401;27;80439;-63
2023/03/07 10:15:17;;;;;;;5.75;3.38;;;23.20;35.10;;;;;;6267329;27;80854;-67
2023/03/07 10:18:18;;;;;;;3.53;2.60;;;23.20;35.30;;;;;;6279069;27;80606;-64
2023/03/07 10:21:18;;;;;;;3.42;2.63;;;23.20;35.40;;;;;;6269281;27;80395;-65
2023/03/07 10:24:19;;;;;;;3.53;2.58;;;23.10;35.40;;;;;;6277518;27;80542;-66
2023/03/07 10:27:19;;;;;;;3.80;2.90;;;23.10;35.50;;;;;;6259541;27;81245;-67
2023/03/07 10:30:20;;;;;;;3.88;3.05;;;23.10;35.50;;;;;;6280329;27;80976;-66
2023/03/07 10:33:20;;;;;;;4.25;3.33;;;23.10;35.50;;;;;;6277521;27;80432;-69
2023/03/07 10:36:21;;;;;;;4.55;2.80;;;23.10;35.60;;;;;;6265224;27;80502;-67
2023/03/07 10:39:21;;;;;;;3.90;2.80;;;23.10;35.50;;;;;;6284364;27;80193;-66
2023/03/07 10:42:22;;;;;;;5.82;2.55;;;23.10;35.50;;;;;;6281154;27;80689;-66
2023/03/07 10:45:22;;;;;;;3.83;2.67;;;23.10;35.40;;;;;;6261291;27;80462;-67
2023/03/07 10:48:23;;;;;;;3.67;2.83;;;23.10;35.40;;;;;;6277934;27;80207;-66
2023/03/07 10:51:23;;;;;;;4.13;2.92;;;23.10;35.30;;;;;;6279284;27;80648;-68
2023/03/07 10:54:24;;;;;;;3.97;2.50;;;23.00;35.40;;;;;;6278909;27;81399;-67
2023/03/07 10:57:24;;;;;;;3.70;2.85;;;23.00;35.60;;;;;;6275061;27;80416;-67
2023/03/07 11:00:25;;;;;;;4.75;2.58;;;23.00;35.50;;;;;;6276044;27;80726;-67
2023/03/07 11:03:25;;;;;;;4.13;2.53;;;23.00;35.50;;;;;;6277471;27;80326;-66
2023/03/07 11:06:26;;;;;;;3.33;2.20;;;22.90;35.40;;;;;;6277409;27;80572;-66
2023/03/07 11:09:27;;;;;;;3.53;2.58;;;22.90;35.40;;;;;;6276841;27;80450;-66
2023/03/07 11:12:28;;;;;;;2.97;2.50;;;22.90;35.30;;;;;;6277522;27;80793;-66
2023/03/07 11:15:28;;;;;;;3.60;2.50;;;22.90;35.20;;;;;;6258022;27;81830;-66
2023/03/07 11:18:29;;;;;;;2.65;2.38;;;22.90;35.80;;;;;;6277929;27;80032;-66
2023/03/07 11:21:30;;;;;;;2.90;2.35;;;22.80;35.10;;;;;;6278721;27;80417;-66
2023/03/07 11:24:30;;;;;;;4.13;2.65;;;22.80;35.10;;;;;;6278469;27;80504;-66
2023/03/07 11:27:31;;;;;;;4.60;2.47;;;22.80;35.00;;;;;;6273843;27;81419;-67
2023/03/07 11:30:31;;;;;;;4.20;2.88;;;22.80;35.00;;;;;;6260357;27;79938;-67
2023/03/07 11:33:32;;;;;;;3.53;2.30;;;22.80;35.00;;;;;;6272354;27;80203;-67
2023/03/07 11:36:33;;;;;;;4.10;2.67;;;22.80;35.00;;;;;;6276794;27;80258;-67
2023/03/07 11:39:33;;;;;;;3.40;2.42;;;22.80;34.90;;;;;;6281908;27;81254;-66
2023/03/07 11:42:34;;;;;;;3.85;2.80;;;22.90;34.90;;;;;;6273331;27;80415;-65
2023/03/07 11:45:34;;;;;;;3.65;2.38;;;22.90;34.70;;;;;;6278268;27;81829;-66
2023/03/07 11:48:35;;;;;;;3.75;2.45;;;23.00;34.50;;;;;;6277025;27;80235;-66
2023/03/07 11:51:35;;;;;;;3.50;2.17;;;23.10;34.50;;;;;;6277236;27;80252;-68
2023/03/07 11:54:36;;;;;;;3.83;2.63;;;23.10;34.50;;;;;;6266242;27;81776;-68
2023/03/07 11:57:36;;;;;;;3.58;2.60;;;23.10;34.50;;;;;;6262228;27;80461;-66
2023/03/07 12:00:37;;;;;;;2.67;2.42;;;23.10;34.50;;;;;;6252032;27;80793;-67
2023/03/07 12:03:37;;;;;;;3.30;2.38;;;23.10;34.70;;;;;;6277876;27;80994;-67
2023/03/07 12:06:38;;;;;;;3.10;2.50;;;23.10;34.60;;;;;;6276897;27;82547;-67
2023/03/07 12:09:38;;;;;;;4.43;2.70;;;23.10;34.50;;;;;;6277074;27;80408;-67
2023/03/07 12:12:39;;;;;;;3.15;2.60;;;23.10;34.80;;;;;;6276323;27;81540;-68
2023/03/07 12:15:39;;;;;;;3.38;2.63;;;23.10;34.80;;;;;;6263322;27;80330;-68
2023/03/07 12:18:40;;;;;;;2.75;2.30;;;23.20;34.80;;;;;;6274724;27;80497;-67
2023/03/07 12:21:41;;;;;;;4.35;2.83;;;23.10;34.60;;;;;;6265721;27;80358;-67
2023/03/07 12:24:41;;;;;;;3.33;2.72;;;23.20;34.70;;;;;;6277460;27;80453;-67
2023/03/07 12:27:42;;;;;;;4.78;2.78;;;23.20;34.60;;;;;;6273154;27;80766;-66
2023/03/07 12:30:42;;;;;;;3.17;2.45;;;23.20;34.60;;;;;;6274332;27;80633;-65
2023/03/07 12:33:43;;;;;;;4.82;3.13;;;23.30;34.60;;;;;;6265011;27;80253;-66
2023/03/07 12:36:43;;;;;;;3.35;2.42;;;23.30;34.50;;;;;;6264952;27;80497;-66
2023/03/07 12:39:44;;;;;;;3.35;2.42;;;23.30;34.40;;;;;;6246285;27;83573;-67
2023/03/07 12:42:44;;;;;;;3.58;2.60;;;23.30;34.50;;;;;;6272148;27;80746;-66
2023/03/07 12:45:45;;;;;;;3.05;2.40;;;23.40;34.60;;;;;;6263080;27;81081;-67
2023/03/07 12:48:45;;;;;;;4.40;2.58;;;23.40;34.70;;;;;;6276141;27;80612;-67
2023/03/07 12:51:46;;;;;;;3.55;2.53;;;23.40;34.50;;;;;;6276041;27;80563;-68
2023/03/07 12:54:46;;;;;;;3.00;2.50;;;23.40;34.60;;;;;;6276396;27;80696;-66
2023/03/07 12:57:49;;;;;;;2.95;2.28;;;23.40;34.60;;;;;;6263074;27;80459;-67
2023/03/07 13:00:49;;;;;;;3.50;2.80;;;23.40;34.90;;;;;;6275848;27;83399;-65
2023/03/07 13:03:50;;;;;;;3.67;2.40;;;23.30;34.80;;;;;;6263208;27;80613;-69
2023/03/07 13:06:50;;;;;;;3.15;2.47;;;23.30;34.80;;;;;;6275991;27;80547;-69
2023/03/07 13:09:51;;;;;;;4.15;2.35;;;23.30;34.70;;;;;;6274856;27;81716;-70
2023/03/07 13:12:51;;;;;;;3.05;2.47;;;23.30;34.90;;;;;;6271846;27;80682;-68
2023/03/07 13:15:52;;;;;;;7.05;2.72;;;23.30;35.00;;;;;;6275559;27;80653;-67
2023/03/07 13:18:52;;;;;;;3.15;2.45;;;23.30;35.10;;;;;;6275366;27;80419;-67
2023/03/07 13:21:53;;;;;;;4.00;2.30;;;23.30;35.00;;;;;;6274814;27;80266;-69
2023/03/07 13:24:53;;;;;;;3.30;2.20;;;23.30;34.80;;;;;;6274993;27;80476;-70
2023/03/07 13:27:54;;;;;;;4.05;2.67;;;23.30;34.90;;;;;;6272079;27;81533;-63
2023/03/07 13:30:54;;;;;;;3.33;2.75;;;23.30;34.80;;;;;;6275182;27;80893;-67
2023/03/07 13:33:55;;;;;;;4.18;2.70;;;23.30;34.80;;;;;;6275401;27;80320;-69
2023/03/07 13:36:55;;;;;;;3.38;3.00;;;23.30;34.70;;;;;;6276677;27;83198;-78
2023/03/07 13:39:56;;;;;;;3.28;2.75;;;23.30;34.60;;;;;;6275741;27;81348;-79
2023/03/07 13:42:57;;;;;;;4.05;2.80;;;23.30;34.60;;;;;;6273178;27;80342;-79
2023/03/07 13:45:58;;;;;;;3.45;2.42;;;23.30;34.60;;;;;;6264440;27;80497;-80
2023/03/07 13:48:58;;;;;;;3.05;2.72;;;23.30;34.50;;;;;;6251438;27;80500;-79
2023/03/07 13:51:59;;;;;;;4.15;2.97;;;23.30;34.60;;;;;;6273674;27;80714;-77
2023/03/07 13:54:59;;;;;;;3.10;2.67;;;23.30;34.60;;;;;;6275499;27;80424;-76
2023/03/07 13:58:00;;;;;;;4.57;3.00;;;23.30;34.80;;;;;;6257398;27;86674;-74
2023/03/07 14:01:01;;;;;;;4.28;2.70;;;23.30;34.90;;;;;;6268916;27;80340;-63
2023/03/07 14:04:01;;;;;;;2.92;2.58;;;23.30;34.90;;;;;;6272657;27;80413;-75
2023/03/07 14:07:02;;;;;;;3.30;2.78;;;23.30;35.00;;;;;;6273154;27;80806;-73
2023/03/07 14:10:05;;;;;;;3.38;2.55;;;23.30;35.20;;;;;;6257169;27;82080;-73
2023/03/07 14:13:07;;;;;;;5.15;2.47;;;23.30;35.70;;;;;;6265616;27;80272;-71
2023/03/07 14:16:07;;;;;;;4.32;2.53;;;23.30;35.70;;;;;;6262128;27;80837;-69
2023/03/07 14:19:08;;;;;;;5.43;2.70;;;23.30;35.80;;;;;;6278593;27;80360;-70
2023/03/07 14:22:08;;;;;;;6.20;2.88;;;23.30;36.00;;;;;;6262279;27;81405;-75
2023/03/07 14:25:09;;;;;;;6.90;2.92;;;23.40;36.00;;;;;;6265232;27;83083;-74
2023/03/07 14:28:09;;;;;;;12.35;4.47;;;23.40;36.50;;;;;;6261259;27;83358;-70
2023/03/07 14:31:10;;;;;;;7.05;3.83;;;23.40;37.80;;;;;;6267112;27;80577;-68
2023/03/07 14:34:11;;;;;;;15.82;4.63;;;23.50;37.70;;;;;;6267377;27;80596;-70
2023/03/07 14:37:11;;;;;;;17.73;4.90;;;23.50;38.90;;;;;;6268419;27;80735;-68
2023/03/07 14:40:12;;;;;;;13.73;4.10;;;23.50;39.20;;;;;;6281784;27;80433;-70
2023/03/07 14:43:12;;;;;;;10.52;5.57;;;23.50;39.60;;;;;;6265421;27;80303;-68
2023/03/07 14:46:13;;;;;;;10.82;5.20;;;23.50;40.30;;;;;;6271772;27;82370;-76
2023/03/07 14:49:14;;;;;;;11.52;4.68;;;23.50;40.00;;;;;;6255395;27;81932;-74
2023/03/07 14:52:14;;;;;;;16.98;5.18;;;23.50;39.70;;;;;;6262967;27;81439;-74
2023/03/07 14:55:15;;;;;;;14.57;4.38;;;23.50;39.30;;;;;;6273981;27;82495;-75
2023/03/07 14:58:15;;;;;;;7.38;4.07;;;23.50;39.10;;;;;;6267867;27;81761;-76
2023/03/07 15:01:17;;;;;;;10.35;5.00;;;23.50;39.00;;;;;;6277336;27;80170;-68
2023/03/07 15:04:17;;;;;;;7.78;3.92;;;23.50;38.90;;;;;;6277880;27;80445;-74
2023/03/07 15:07:18;;;;;;;10.02;4.05;;;23.50;38.50;;;;;;6277329;27;81589;-73
2023/03/07 15:10:18;;;;;;;8.93;4.40;;;23.50;38.50;;;;;;6266838;27;80503;-69
2023/03/07 15:13:19;;;;;;;10.23;3.72;;;23.50;38.50;;;;;;6267757;27;80872;-71
2023/03/07 15:16:21;;;;;;;11.73;4.47;;;23.50;38.60;;;;;;6241529;27;83362;-66
2023/03/07 15:19:22;;;;;;;13.75;4.57;;;23.50;38.60;;;;;;6257372;27;80728;-70
2023/03/07 15:22:23;;;;;;;10.95;3.47;;;23.50;38.30;;;;;;6266649;27;80485;-76
2023/03/07 15:25:23;;;;;;;5.50;3.20;;;23.40;38.20;;;;;;6261842;27;80611;-76
2023/03/07 15:28:24;;;;;;;9.13;3.70;;;23.40;38.10;;;;;;6258694;27;81735;-76
2023/03/07 15:31:24;;;;;;;9.18;3.42;;;23.40;38.00;;;;;;6261554;27;81360;-77
2023/03/07 15:34:25;;;;;;;6.93;3.42;;;23.40;38.00;;;;;;6257489;27;80287;-72
2023/03/07 15:37:26;;;;;;;8.23;3.70;;;23.30;37.90;;;;;;6260683;27;80405;-77
2023/03/07 15:40:26;;;;;;;5.93;3.63;;;23.30;37.80;;;;;;6263764;27;80829;-74